sensor_id;sensor_type;location;lat;lon;timestamp;pressure;altitude;pressure_sealevel;temperature;humidity
23679;BME280;12016;51.668;6.874;2022-12-08T00:01:18;100924.47;;;5.82;100.00
23679;BME280;12016;51.668;6.874;2022-12-08T00:07:21;100907.31;;;5.85;100.00
23679;BME280;12016;51.668;6.874;2022-12-08T00:13:41;100912.53;;;5.78;100.00
23679;BME280;12016;51.668;6.874;2022-12-08T00:19:44;100905.03;;;5.87;100.00
23679;BME280;12016;51.668;6.874;2022-12-08T00:25:47;100903.16;;;5.67;100.00
23679;BME280;12016;51.668;6.874;2022-12-08T00:31:49;100885.53;;;5.68;100.00
23679;BME280;12016;51.668;6.874;2022-12-08T00:37:50;100890.56;;;5.54;100.00
23679;BME280;12016;51.668;6.874;2022-12-08T00:43:54;100882.31;;;5.42;100.00
23679;BME280;12016;51.668;6.874;2022-12-08T00:49:56;100879.13;;;5.40;100.00
23679;BME280;12016;51.668;6.874;2022-12-08T00:55:58;100873.72;;;5.43;100.00
23679;BME280;12016;51.668;6.874;2022-12-08T01:01:59;100866.66;;;5.42;100.00
23679;BME280;12016;51.668;6.874;2022-12-08T01:08:04;100863.34;;;5.49;100.00
23679;BME280;12016;51.668;6.874;2022-12-08T01:14:07;100864.72;;;5.43;100.00
23679;BME280;12016;51.668;6.874;2022-12-08T01:20:09;100863.09;;;5.54;100.00
23679;BME280;12016;51.668;6.874;2022-12-08T01:26:13;100859.09;;;5.64;100.00
23679;BME280;12016;51.668;6.874;2022-12-08T01:32:15;100863.13;;;5.66;100.00
23679;BME280;12016;51.668;6.874;2022-12-08T01:38:17;100855.78;;;5.70;100.00
23679;BME280;12016;51.668;6.874;2022-12-08T01:50:21;100861.50;;;5.77;100.00
23679;BME280;12016;51.668;6.874;2022-12-08T01:56:51;100851.41;;;5.81;100.00
23679;BME280;12016;51.668;6.874;2022-12-08T02:03:28;100839.53;;;5.77;100.00
23679;BME280;12016;51.668;6.874;2022-12-08T02:09:32;100831.97;;;5.86;100.00
23679;BME280;12016;51.668;6.874;2022-12-08T02:15:37;100825.13;;;5.92;100.00
23679;BME280;12016;51.668;6.874;2022-12-08T02:21:55;100817.91;;;5.76;100.00
23679;BME280;12016;51.668;6.874;2022-12-08T02:40:57;100809.28;;;5.89;100.00
23679;BME280;12016;51.668;6.874;2022-12-08T02:47:12;100798.97;;;5.98;100.00
23679;BME280;12016;51.668;6.874;2022-12-08T02:53:15;100792.91;;;5.93;100.00
23679;BME280;12016;51.668;6.874;2022-12-08T02:59:24;100783.63;;;5.97;100.00
23679;BME280;12016;51.668;6.874;2022-12-08T03:05:35;100777.47;;;6.00;100.00
23679;BME280;12016;51.668;6.874;2022-12-08T03:11:47;100762.59;;;5.89;100.00
23679;BME280;12016;51.668;6.874;2022-12-08T03:17:54;100763.84;;;5.92;100.00
23679;BME280;12016;51.668;6.874;2022-12-08T03:23:59;100751.25;;;5.91;100.00
23679;BME280;12016;51.668;6.874;2022-12-08T03:30:03;100753.31;;;5.94;100.00
23679;BME280;12016;51.668;6.874;2022-12-08T03:36:07;100748.06;;;5.89;100.00
23679;BME280;12016;51.668;6.874;2022-12-08T03:42:10;100730.28;;;5.98;100.00
23679;BME280;12016;51.668;6.874;2022-12-08T03:48:11;100723.88;;;5.94;100.00
23679;BME280;12016;51.668;6.874;2022-12-08T03:54:13;100717.16;;;5.92;100.00
23679;BME280;12016;51.668;6.874;2022-12-08T04:00:15;100709.72;;;5.92;100.00
23679;BME280;12016;51.668;6.874;2022-12-08T04:06:18;100702.59;;;5.91;100.00
23679;BME280;12016;51.668;6.874;2022-12-08T04:12:20;100696.25;;;6.03;100.00
23679;BME280;12016;51.668;6.874;2022-12-08T04:18:22;100695.28;;;5.95;100.00
23679;BME280;12016;51.668;6.874;2022-12-08T04:24:24;100688.63;;;5.96;100.00
23679;BME280;12016;51.668;6.874;2022-12-08T04:30:26;100686.13;;;5.91;100.00
23679;BME280;12016;51.668;6.874;2022-12-08T04:36:28;100689.44;;;5.97;100.00
23679;BME280;12016;51.668;6.874;2022-12-08T04:42:30;100683.81;;;5.93;100.00
23679;BME280;12016;51.668;6.874;2022-12-08T04:48:33;100683.78;;;6.05;100.00
23679;BME280;12016;51.668;6.874;2022-12-08T04:54:34;100679.91;;;5.94;100.00
23679;BME280;12016;51.668;6.874;2022-12-08T05:00:36;100680.63;;;5.91;100.00
23679;BME280;12016;51.668;6.874;2022-12-08T05:06:38;100680.00;;;5.82;100.00
23679;BME280;12016;51.668;6.874;2022-12-08T05:12:40;100680.91;;;5.74;100.00
23679;BME280;12016;51.668;6.874;2022-12-08T05:18:42;100674.28;;;5.63;100.00
23679;BME280;12016;51.668;6.874;2022-12-08T05:24:44;100684.69;;;5.70;100.00
23679;BME280;12016;51.668;6.874;2022-12-08T05:30:48;100673.63;;;5.66;100.00
23679;BME280;12016;51.668;6.874;2022-12-08T05:36:49;100675.31;;;5.71;100.00
23679;BME280;12016;51.668;6.874;2022-12-08T05:42:51;100675.31;;;5.71;100.00
23679;BME280;12016;51.668;6.874;2022-12-08T05:48:53;100657.81;;;5.63;100.00
23679;BME280;12016;51.668;6.874;2022-12-08T05:54:55;100658.63;;;5.64;100.00
23679;BME280;12016;51.668;6.874;2022-12-08T06:00:59;100649.75;;;5.54;100.00
23679;BME280;12016;51.668;6.874;2022-12-08T06:07:00;100653.72;;;5.57;100.00
23679;BME280;12016;51.668;6.874;2022-12-08T06:13:04;100646.69;;;5.44;100.00
23679;BME280;12016;51.668;6.874;2022-12-08T06:19:06;100654.53;;;5.57;100.00
23679;BME280;12016;51.668;6.874;2022-12-08T06:25:09;100662.00;;;5.45;100.00
23679;BME280;12016;51.668;6.874;2022-12-08T06:31:14;100647.94;;;5.46;100.00
23679;BME280;12016;51.668;6.874;2022-12-08T06:37:16;100648.03;;;5.50;100.00
23679;BME280;12016;51.668;6.874;2022-12-08T06:43:18;100637.50;;;5.52;100.00
23679;BME280;12016;51.668;6.874;2022-12-08T06:49:20;100627.00;;;5.42;100.00
23679;BME280;12016;51.668;6.874;2022-12-08T06:55:22;100634.06;;;5.55;100.00
23679;BME280;12016;51.668;6.874;2022-12-08T07:01:43;100637.03;;;5.50;100.00
23679;BME280;12016;51.668;6.874;2022-12-08T07:07:47;100632.00;;;5.52;100.00
23679;BME280;12016;51.668;6.874;2022-12-08T07:13:49;100644.69;;;5.56;100.00
23679;BME280;12016;51.668;6.874;2022-12-08T07:19:51;100648.03;;;5.50;100.00
23679;BME280;12016;51.668;6.874;2022-12-08T07:25:53;100651.44;;;5.59;100.00
23679;BME280;12016;51.668;6.874;2022-12-08T07:31:55;100658.53;;;5.60;100.00
23679;BME280;12016;51.668;6.874;2022-12-08T07:37:57;100650.03;;;5.65;100.00
23679;BME280;12016;51.668;6.874;2022-12-08T07:43:59;100647.25;;;5.77;100.00
23679;BME280;12016;51.668;6.874;2022-12-08T07:50:01;100641.75;;;5.77;100.00
23679;BME280;12016;51.668;6.874;2022-12-08T07:56:05;100649.44;;;5.72;100.00
23679;BME280;12016;51.668;6.874;2022-12-08T08:02:15;100651.00;;;5.85;100.00
23679;BME280;12016;51.668;6.874;2022-12-08T08:08:25;100652.88;;;5.69;100.00
23679;BME280;12016;51.668;6.874;2022-12-08T08:14:27;100643.06;;;5.68;100.00
23679;BME280;12016;51.668;6.874;2022-12-08T08:20:29;100639.97;;;5.69;100.00
23679;BME280;12016;51.668;6.874;2022-12-08T08:26:31;100646.47;;;5.65;100.00
23679;BME280;12016;51.668;6.874;2022-12-08T08:32:33;100659.22;;;5.57;100.00
23679;BME280;12016;51.668;6.874;2022-12-08T08:38:36;100655.63;;;5.69;100.00
23679;BME280;12016;51.668;6.874;2022-12-08T08:44:40;100650.75;;;5.62;100.00
23679;BME280;12016;51.668;6.874;2022-12-08T08:50:42;100661.31;;;5.48;100.00
23679;BME280;12016;51.668;6.874;2022-12-08T08:56:44;100660.63;;;5.51;100.00
23679;BME280;12016;51.668;6.874;2022-12-08T09:02:46;100669.22;;;5.49;100.00
23679;BME280;12016;51.668;6.874;2022-12-08T09:08:48;100660.63;;;5.51;100.00
23679;BME280;12016;51.668;6.874;2022-12-08T09:14:50;100664.47;;;5.62;100.00
23679;BME280;12016;51.668;6.874;2022-12-08T09:20:52;100668.38;;;5.61;100.00
23679;BME280;12016;51.668;6.874;2022-12-08T09:26:55;100670.53;;;5.68;100.00
23679;BME280;12016;51.668;6.874;2022-12-08T09:32:57;100674.00;;;5.80;100.00
23679;BME280;12016;51.668;6.874;2022-12-08T09:38:59;100678.47;;;5.85;100.00
23679;BME280;12016;51.668;6.874;2022-12-08T09:45:08;100677.41;;;5.89;100.00
23679;BME280;12016;51.668;6.874;2022-12-08T09:51:13;100677.63;;;5.96;100.00
23679;BME280;12016;51.668;6.874;2022-12-08T09:57:19;100671.41;;;5.84;100.00
23679;BME280;12016;51.668;6.874;2022-12-08T10:03:26;100661.34;;;6.03;100.00
23679;BME280;12016;51.668;6.874;2022-12-08T10:15:57;100656.75;;;6.23;100.00
23679;BME280;12016;51.668;6.874;2022-12-08T10:22:01;100659.41;;;6.19;100.00
23679;BME280;12016;51.668;6.874;2022-12-08T10:28:13;100647.53;;;6.15;100.00
23679;BME280;12016;51.668;6.874;2022-12-08T10:34:18;100648.44;;;6.19;100.00
23679;BME280;12016;51.668;6.874;2022-12-08T10:40:20;100644.59;;;6.24;100.00
23679;BME280;12016;51.668;6.874;2022-12-08T10:46:23;100645.41;;;6.24;100.00
23679;BME280;12016;51.668;6.874;2022-12-08T10:52:28;100641.34;;;6.18;100.00
23679;BME280;12016;51.668;6.874;2022-12-08T10:58:36;100629.16;;;6.04;100.00
23679;BME280;12016;51.668;6.874;2022-12-08T11:04:41;100626.94;;;6.09;100.00
23679;BME280;12016;51.668;6.874;2022-12-08T11:10:43;100613.25;;;6.25;100.00
23679;BME280;12016;51.668;6.874;2022-12-08T11:16:46;100612.75;;;6.07;100.00
23679;BME280;12016;51.668;6.874;2022-12-08T11:22:53;100610.19;;;6.30;100.00
23679;BME280;12016;51.668;6.874;2022-12-08T11:28:56;100601.16;;;6.29;100.00
23679;BME280;12016;51.668;6.874;2022-12-08T11:35:01;100585.28;;;6.38;100.00
23679;BME280;12016;51.668;6.874;2022-12-08T11:41:08;100581.41;;;6.39;100.00
23679;BME280;12016;51.668;6.874;2022-12-08T11:47:21;100585.63;;;6.52;100.00
23679;BME280;12016;51.668;6.874;2022-12-08T11:59:53;100584.50;;;6.38;100.00
23679;BME280;12016;51.668;6.874;2022-12-08T12:18:53;100580.81;;;6.49;100.00
23679;BME280;12016;51.668;6.874;2022-12-08T12:24:57;100578.34;;;6.60;100.00
23679;BME280;12016;51.668;6.874;2022-12-08T12:31:06;100572.13;;;6.63;100.00
23679;BME280;12016;51.668;6.874;2022-12-08T12:37:14;100572.78;;;6.75;100.00
23679;BME280;12016;51.668;6.874;2022-12-08T12:43:28;100568.66;;;6.66;100.00
23679;BME280;12016;51.668;6.874;2022-12-08T13:01:52;100567.88;;;6.65;100.00
23679;BME280;12016;51.668;6.874;2022-12-08T13:08:04;100556.47;;;6.32;100.00
23679;BME280;12016;51.668;6.874;2022-12-08T13:14:25;100550.44;;;6.27;100.00
23679;BME280;12016;51.668;6.874;2022-12-08T13:20:27;100543.16;;;6.34;100.00
23679;BME280;12016;51.668;6.874;2022-12-08T13:26:29;100540.56;;;6.41;100.00
23679;BME280;12016;51.668;6.874;2022-12-08T13:32:56;100544.03;;;6.38;100.00
23679;BME280;12016;51.668;6.874;2022-12-08T13:39:23;100547.50;;;6.35;100.00
23679;BME280;12016;51.668;6.874;2022-12-08T13:45:28;100550.78;;;6.25;100.00
23679;BME280;12016;51.668;6.874;2022-12-08T13:51:53;100549.66;;;6.26;100.00
23679;BME280;12016;51.668;6.874;2022-12-08T13:58:18;100544.56;;;6.28;100.00
23679;BME280;12016;51.668;6.874;2022-12-08T14:04:22;100539.91;;;6.13;100.00
23679;BME280;12016;51.668;6.874;2022-12-08T14:10:52;100544.50;;;6.09;100.00
23679;BME280;12016;51.668;6.874;2022-12-08T14:17:22;100539.38;;;5.92;100.00
23679;BME280;12016;51.668;6.874;2022-12-08T14:23:24;100535.66;;;6.00;100.00
23679;BME280;12016;51.668;6.874;2022-12-08T14:29:37;100538.38;;;5.85;100.00
23679;BME280;12016;51.668;6.874;2022-12-08T14:35:39;100535.56;;;5.97;100.00
23679;BME280;12016;51.668;6.874;2022-12-08T14:41:57;100540.34;;;6.00;100.00
23679;BME280;12016;51.668;6.874;2022-12-08T14:54:19;100545.81;;;5.84;100.00
23679;BME280;12016;51.668;6.874;2022-12-08T15:00:22;100546.91;;;5.95;100.00
23679;BME280;12016;51.668;6.874;2022-12-08T15:06:24;100547.25;;;6.09;100.00
23679;BME280;12016;51.668;6.874;2022-12-08T15:12:27;100536.34;;;5.97;100.00
23679;BME280;12016;51.668;6.874;2022-12-08T15:18:38;100542.38;;;5.87;100.00
23679;BME280;12016;51.668;6.874;2022-12-08T15:24:40;100549.25;;;5.81;100.00
23679;BME280;12016;51.668;6.874;2022-12-08T15:30:42;100556.66;;;5.93;100.00
23679;BME280;12016;51.668;6.874;2022-12-08T15:36:44;100548.03;;;5.94;100.00
23679;BME280;12016;51.668;6.874;2022-12-08T15:42:46;100550.63;;;5.87;100.00
23679;BME280;12016;51.668;6.874;2022-12-08T15:48:49;100567.75;;;5.69;100.00
23679;BME280;12016;51.668;6.874;2022-12-08T15:54:54;100564.19;;;5.68;100.00
23679;BME280;12016;51.668;6.874;2022-12-08T16:00:57;100570.50;;;5.69;100.00
23679;BME280;12016;51.668;6.874;2022-12-08T16:06:59;100564.13;;;5.80;100.00
23679;BME280;12016;51.668;6.874;2022-12-08T16:13:20;100564.13;;;5.80;100.00
23679;BME280;12016;51.668;6.874;2022-12-08T16:19:57;100556.41;;;5.70;100.00
23679;BME280;12016;51.668;6.874;2022-12-08T16:25:59;100567.84;;;5.72;100.00
23679;BME280;12016;51.668;6.874;2022-12-08T16:32:23;100554.72;;;5.81;100.00
23679;BME280;12016;51.668;6.874;2022-12-08T16:38:24;100558.56;;;5.77;100.00
23679;BME280;12016;51.668;6.874;2022-12-08T16:44:26;100558.34;;;5.70;100.00
23679;BME280;12016;51.668;6.874;2022-12-08T16:50:33;100567.03;;;5.72;100.00
23679;BME280;12016;51.668;6.874;2022-12-08T16:56:35;100560.09;;;5.90;100.00
23679;BME280;12016;51.668;6.874;2022-12-08T17:02:37;100555.66;;;6.01;100.00
23679;BME280;12016;51.668;6.874;2022-12-08T17:08:39;100568.00;;;5.91;100.00
23679;BME280;12016;51.668;6.874;2022-12-08T17:14:41;100558.88;;;5.87;100.00
23679;BME280;12016;51.668;6.874;2022-12-08T17:20:43;100565.72;;;5.81;100.00
23679;BME280;12016;51.668;6.874;2022-12-08T17:26:45;100561.16;;;5.85;100.00
23679;BME280;12016;51.668;6.874;2022-12-08T17:32:47;100558.41;;;5.85;100.00
23679;BME280;12016;51.668;6.874;2022-12-08T17:38:48;100571.22;;;5.81;100.00
23679;BME280;12016;51.668;6.874;2022-12-08T17:44:51;100566.41;;;5.90;100.00
23679;BME280;12016;51.668;6.874;2022-12-08T17:50:53;100564.72;;;6.01;100.00
23679;BME280;12016;51.668;6.874;2022-12-08T17:56:56;100559.84;;;6.10;100.00
23679;BME280;12016;51.668;6.874;2022-12-08T18:02:59;100558.16;;;6.21;100.00
23679;BME280;12016;51.668;6.874;2022-12-08T18:09:02;100553.66;;;6.13;100.00
23679;BME280;12016;51.668;6.874;2022-12-08T18:15:05;100558.88;;;6.03;100.00
23679;BME280;12016;51.668;6.874;2022-12-08T18:21:08;100565.63;;;6.05;100.00
23679;BME280;12016;51.668;6.874;2022-12-08T18:27:10;100567.19;;;6.22;100.00
23679;BME280;12016;51.668;6.874;2022-12-08T18:33:12;100559.03;;;6.25;100.00
23679;BME280;12016;51.668;6.874;2022-12-08T18:39:40;100565.16;;;6.34;100.00
23679;BME280;12016;51.668;6.874;2022-12-08T18:45:41;100562.78;;;6.33;100.00
23679;BME280;12016;51.668;6.874;2022-12-08T18:51:44;100549.81;;;6.33;100.00
23679;BME280;12016;51.668;6.874;2022-12-08T18:57:46;100559.31;;;6.36;100.00
23679;BME280;12016;51.668;6.874;2022-12-08T19:03:48;100554.88;;;6.31;100.00
23679;BME280;12016;51.668;6.874;2022-12-08T19:10:05;100547.72;;;6.11;100.00
23679;BME280;12016;51.668;6.874;2022-12-08T19:16:07;100555.50;;;6.09;100.00
23679;BME280;12016;51.668;6.874;2022-12-08T19:22:10;100557.53;;;6.28;100.00
23679;BME280;12016;51.668;6.874;2022-12-08T19:28:12;100552.41;;;6.26;100.00
23679;BME280;12016;51.668;6.874;2022-12-08T19:34:14;100562.22;;;5.96;100.00
23679;BME280;12016;51.668;6.874;2022-12-08T19:40:16;100559.81;;;5.79;100.00
23679;BME280;12016;51.668;6.874;2022-12-08T19:46:37;100561.44;;;5.68;100.00
23679;BME280;12016;51.668;6.874;2022-12-08T19:52:41;100565.41;;;5.55;100.00
23679;BME280;12016;51.668;6.874;2022-12-08T19:58:43;100568.59;;;5.57;100.00
23679;BME280;12016;51.668;6.874;2022-12-08T20:04:45;100571.84;;;5.47;100.00
23679;BME280;12016;51.668;6.874;2022-12-08T20:10:47;100577.84;;;5.37;100.00
23679;BME280;12016;51.668;6.874;2022-12-08T20:16:49;100584.38;;;5.32;100.00
23679;BME280;12016;51.668;6.874;2022-12-08T20:22:51;100597.28;;;5.44;100.00
23679;BME280;12016;51.668;6.874;2022-12-08T20:28:53;100589.63;;;5.65;100.00
23679;BME280;12016;51.668;6.874;2022-12-08T20:34:55;100588.22;;;5.43;100.00
23679;BME280;12016;51.668;6.874;2022-12-08T20:40:58;100595.47;;;5.36;100.00
23679;BME280;12016;51.668;6.874;2022-12-08T20:47:00;100588.88;;;5.52;100.00
23679;BME280;12016;51.668;6.874;2022-12-08T20:53:03;100586.72;;;5.74;100.00
23679;BME280;12016;51.668;6.874;2022-12-08T20:59:05;100593.31;;;5.57;100.00
23679;BME280;12016;51.668;6.874;2022-12-08T21:05:08;100589.75;;;5.41;100.00
23679;BME280;12016;51.668;6.874;2022-12-08T21:11:10;100590.78;;;5.36;100.00
23679;BME280;12016;51.668;6.874;2022-12-08T21:17:12;100587.94;;;5.33;100.00
23679;BME280;12016;51.668;6.874;2022-12-08T21:23:14;100595.59;;;5.27;100.00
23679;BME280;12016;51.668;6.874;2022-12-08T21:29:17;100584.03;;;5.34;100.00
23679;BME280;12016;51.668;6.874;2022-12-08T21:35:19;100586.13;;;5.25;100.00
23679;BME280;12016;51.668;6.874;2022-12-08T21:41:22;100589.78;;;5.29;100.00
23679;BME280;12016;51.668;6.874;2022-12-08T21:47:44;100581.16;;;5.42;100.00
23679;BME280;12016;51.668;6.874;2022-12-08T21:53:46;100579.59;;;5.57;100.00
23679;BME280;12016;51.668;6.874;2022-12-08T21:59:48;100581.13;;;5.70;100.00
23679;BME280;12016;51.668;6.874;2022-12-08T22:05:51;100571.81;;;5.75;100.00
23679;BME280;12016;51.668;6.874;2022-12-08T22:11:53;100577.78;;;5.77;100.00
23679;BME280;12016;51.668;6.874;2022-12-08T22:17:54;100591.75;;;5.84;100.00
23679;BME280;12016;51.668;6.874;2022-12-08T22:23:57;100579.81;;;5.80;100.00
23679;BME280;12016;51.668;6.874;2022-12-08T22:29:59;100578.34;;;5.82;100.00
23679;BME280;12016;51.668;6.874;2022-12-08T22:36:02;100576.34;;;5.67;100.00
23679;BME280;12016;51.668;6.874;2022-12-08T22:42:08;100581.38;;;5.65;100.00
23679;BME280;12016;51.668;6.874;2022-12-08T22:48:10;100568.81;;;5.64;100.00
23679;BME280;12016;51.668;6.874;2022-12-08T22:54:12;100566.84;;;5.65;100.00
23679;BME280;12016;51.668;6.874;2022-12-08T23:00:14;100566.31;;;5.59;100.00
23679;BME280;12016;51.668;6.874;2022-12-08T23:06:16;100570.13;;;5.54;100.00
23679;BME280;12016;51.668;6.874;2022-12-08T23:12:19;100567.97;;;5.48;100.00
23679;BME280;12016;51.668;6.874;2022-12-08T23:18:21;100564.19;;;5.52;100.00
23679;BME280;12016;51.668;6.874;2022-12-08T23:24:25;100578.75;;;5.41;100.00
23679;BME280;12016;51.668;6.874;2022-12-08T23:30:27;100566.94;;;5.25;100.00
23679;BME280;12016;51.668;6.874;2022-12-08T23:36:29;100577.06;;;5.09;100.00
23679;BME280;12016;51.668;6.874;2022-12-08T23:42:32;100572.88;;;5.27;100.00
23679;BME280;12016;51.668;6.874;2022-12-08T23:48:34;100577.81;;;5.09;100.00
23679;BME280;12016;51.668;6.874;2022-12-08T23:54:36;100574.31;;;5.09;100.00
